Time;durP1;ratioP1;P1;durP2;ratioP2;P2;SDS_P1;SDS_P2;PMS_P1;PMS_P2;Temp;Humidity;BMP_temperature;BMP_pressure;BME280_temperature;BME280_humidity;BME280_pressure;Samples;Min_cycle;Max_cycle;Signal;HPM_P1;HPM_P2
2021/07/28 00:03:45;;;;;;;429.15;11.55;;;;;;;16.65;69.08;99521.78;10367039;28;20054;-60
2021/07/28 00:09:01;;;;;;;369.10;11.95;;;;;;;16.47;69.04;99528.75;10364081;28;20524;-60
2021/07/28 00:14:03;;;;;;;557.58;19.55;;;;;;;16.35;69.20;99542.16;10381863;28;20077;-60
2021/07/28 00:24:06;;;;;;;319.45;12.15;;;;;;;16.45;69.03;99532.50;10362746;28;20164;-60
2021/07/28 00:29:08;;;;;;;210.90;9.30;;;;;;;16.34;69.59;99529.97;10346631;28;20383;-60
2021/07/28 00:34:09;;;;;;;152.40;7.78;;;;;;;16.36;69.25;99531.50;10366443;28;20045;-60
2021/07/28 00:39:11;;;;;;;205.85;9.25;;;;;;;16.31;68.73;99531.06;10366035;28;20384;-60
2021/07/28 00:44:13;;;;;;;149.15;9.20;;;;;;;16.21;68.99;99533.69;10364726;28;20056;-60
2021/07/28 00:49:15;;;;;;;297.08;16.65;;;;;;;16.00;69.14;99532.97;10365790;28;20303;-60
2021/07/28 00:54:17;;;;;;;70.72;7.30;;;;;;;15.94;69.72;99533.50;10365044;28;20038;-60
2021/07/28 00:59:20;;;;;;;84.40;10.90;;;;;;;15.86;69.58;99530.69;10365305;28;20648;-60
2021/07/28 01:04:25;;;;;;;15.25;5.57;;;;;;;15.72;69.95;99528.44;10364373;28;20046;-60
2021/07/28 01:09:30;;;;;;;21.98;8.40;;;;;;;15.67;69.86;99530.66;10365482;28;20137;-60
2021/07/28 01:14:31;;;;;;;19.63;6.28;;;;;;;15.58;70.18;99520.91;10364850;28;20065;-60
2021/07/28 01:19:44;;;;;;;14.43;6.53;;;;;;;15.47;70.50;99523.59;10364135;28;20050;-60
2021/07/28 01:24:46;;;;;;;18.20;6.85;;;;;;;15.49;70.37;99518.19;10364074;28;20169;-60
2021/07/28 01:29:48;;;;;;;24.25;5.90;;;;;;;15.55;70.58;99520.34;10363737;28;20054;-60
2021/07/28 01:34:49;;;;;;;22.38;8.02;;;;;;;15.66;69.91;99522.84;10355614;28;20126;-60
2021/07/28 01:39:51;;;;;;;12.95;7.82;;;;;;;15.75;69.61;99528.19;10356318;28;20132;-60
2021/07/28 01:44:53;;;;;;;13.13;7.20;;;;;;;15.84;69.32;99522.09;10352447;28;20481;-60
2021/07/28 01:49:54;;;;;;;9.55;6.30;;;;;;;15.90;69.28;99518.91;10363344;28;20046;-60
2021/07/28 01:54:56;;;;;;;9.60;6.22;;;;;;;15.99;68.78;99515.47;10363837;28;20134;-60
2021/07/28 02:00:00;;;;;;;11.23;6.43;;;;;;;15.94;68.70;99512.41;10362939;28;20179;-60
2021/07/28 02:05:04;;;;;;;12.45;6.80;;;;;;;16.01;68.82;99508.25;10370266;28;20129;-60
2021/07/28 02:10:06;;;;;;;12.57;6.38;;;;;;;15.97;68.59;99503.38;10355686;28;20550;-60
2021/07/28 02:15:08;;;;;;;16.92;7.03;;;;;;;15.84;68.06;99489.59;10370676;28;20089;-60
2021/07/28 02:20:11;;;;;;;19.63;7.10;;;;;;;15.45;68.89;99488.63;10370269;28;20129;-60
2021/07/28 02:25:13;;;;;;;11.77;6.72;;;;;;;15.44;68.73;99481.69;10370663;28;20136;-60
2021/07/28 02:30:17;;;;;;;164.43;12.38;;;;;;;15.30;69.00;99472.38;10370410;28;20129;-60
2021/07/28 02:35:18;;;;;;;780.42;29.42;;;;;;;15.21;69.11;99488.09;10369646;28;20053;-60
2021/07/28 02:40:20;;;;;;;136.25;8.43;;;;;;;15.27;69.48;99477.03;10368689;28;20068;-60
2021/07/28 02:45:22;;;;;;;359.50;13.55;;;;;;;15.23;69.45;99486.16;10376160;28;20050;-60
2021/07/28 02:50:24;;;;;;;1033.97;31.08;;;;;;;15.04;69.11;99480.81;10378058;28;20383;-59
2021/07/28 02:55:26;;;;;;;1071.40;27.50;;;;;;;14.84;69.88;99486.94;10378154;28;20473;-60
2021/07/28 03:00:27;;;;;;;770.00;19.85;;;;;;;14.78;70.01;99498.81;10377411;28;20572;-60
2021/07/28 03:05:29;;;;;;;480.77;14.57;;;;;;;14.84;70.05;99506.19;10372744;28;20132;-60
2021/07/28 03:10:31;;;;;;;351.05;15.07;;;;;;;14.86;69.92;99495.56;10370569;28;20073;-60
2021/07/28 03:15:32;;;;;;;36.03;8.77;;;;;;;14.91;69.74;99494.19;10369523;28;20068;-60
2021/07/28 03:20:34;;;;;;;65.85;8.55;;;;;;;14.87;70.03;99491.94;10366845;28;20137;-60
2021/07/28 03:25:36;;;;;;;456.58;19.23;;;;;;;14.96;69.24;99493.81;10354507;28;20133;-60
2021/07/28 03:30:38;;;;;;;160.55;11.40;;;;;;;14.83;69.52;99498.44;10367259;28;20132;-60
2021/07/28 03:35:39;;;;;;;9.23;6.63;;;;;;;14.89;69.34;99501.38;10369005;28;20080;-60
2021/07/28 03:40:41;;;;;;;14.27;7.45;;;;;;;14.86;69.28;99504.25;10367581;28;20395;-60
2021/07/28 03:45:43;;;;;;;217.65;14.10;;;;;;;14.83;69.39;99512.44;10369481;28;20137;-60
2021/07/28 03:50:45;;;;;;;26.63;8.05;;;;;;;14.78;69.36;99508.53;10369022;28;20046;-60
2021/07/28 03:55:46;;;;;;;140.48;12.27;;;;;;;14.87;68.97;99499.84;10367749;28;20048;-60
2021/07/28 04:00:48;;;;;;;163.13;10.65;;;;;;;14.89;69.62;99509.28;10368163;28;20068;-60
2021/07/28 04:05:54;;;;;;;25.83;6.88;;;;;;;15.01;69.44;99513.53;10368173;28;20619;-60
2021/07/28 04:10:56;;;;;;;404.08;16.15;;;;;;;15.08;69.10;99519.09;10367001;28;20471;-60
2021/07/28 04:15:57;;;;;;;645.90;23.25;;;;;;;15.11;69.01;99505.66;10367670;28;20055;-60
2021/07/28 04:20:59;;;;;;;327.50;12.98;;;;;;;15.12;69.01;99504.72;10367613;28;20387;-60
2021/07/28 04:26:01;;;;;;;67.28;8.15;;;;;;;15.36;68.64;99508.72;10367088;28;20077;-60
2021/07/28 04:31:02;;;;;;;519.28;18.70;;;;;;;15.54;68.11;99508.97;10367350;28;20096;-60
2021/07/28 04:36:04;;;;;;;638.67;21.42;;;;;;;15.70;67.51;99498.75;10366817;28;20069;-60
2021/07/28 04:41:06;;;;;;;163.43;9.25;;;;;;;15.67;67.91;99496.38;10351479;28;20061;-60
2021/07/28 04:46:08;;;;;;;399.85;16.50;;;;;;;15.66;67.57;99488.59;10344778;28;20049;-60
2021/07/28 04:51:09;;;;;;;67.00;7.07;;;;;;;16.05;67.26;99482.44;10366397;28;20129;-60
2021/07/28 04:56:12;;;;;;;399.00;13.07;;;;;;;16.79;65.00;99471.19;10364703;28;20582;-60
2021/07/28 05:01:13;;;;;;;186.80;8.45;;;;;;;17.16;64.20;99476.50;10365856;28;20133;-60
2021/07/28 05:06:15;;;;;;;490.42;16.92;;;;;;;17.06;63.54;99481.00;10364507;28;20096;-60
2021/07/28 05:11:17;;;;;;;155.70;11.65;;;;;;;16.95;64.11;99482.03;10365948;28;20129;-60
2021/07/28 05:16:19;;;;;;;26.15;6.50;;;;;;;17.12;63.77;99490.19;10365606;28;20478;-60
2021/07/28 05:21:20;;;;;;;455.33;20.83;;;;;;;16.75;64.39;99498.03;10365427;28;20697;-60
2021/07/28 05:26:22;;;;;;;19.70;7.72;;;;;;;16.66;65.41;99490.94;10365050;28;20164;-60
2021/07/28 05:31:24;;;;;;;13.65;8.77;;;;;;;16.66;64.29;99489.16;10364281;28;20915;-59
2021/07/28 05:36:25;;;;;;;15.85;8.85;;;;;;;16.81;64.43;99498.28;10364186;28;20149;-60
2021/07/28 05:41:27;;;;;;;18.75;9.93;;;;;;;16.97;64.70;99498.56;10379588;28;20060;-60
2021/07/28 05:46:29;;;;;;;16.58;8.65;;;;;;;17.06;64.46;99506.59;10364619;28;20578;-60
2021/07/28 05:51:31;;;;;;;15.68;9.18;;;;;;;17.08;64.24;99516.03;10364039;28;20053;-60
2021/07/28 05:56:32;;;;;;;15.32;8.55;;;;;;;17.89;62.65;99501.28;10363559;28;20041;-60
2021/07/28 06:01:34;;;;;;;14.48;8.80;;;;;;;18.47;60.91;99498.09;10330557;28;20518;-59
2021/07/28 06:06:36;;;;;;;10.68;7.30;;;;;;;18.61;61.18;99489.63;10343157;28;20092;-60
2021/07/28 06:11:38;;;;;;;12.98;7.88;;;;;;;19.01;60.42;99488.25;10363984;28;20133;-60
2021/07/28 06:16:39;;;;;;;12.52;7.93;;;;;;;19.17;60.04;99478.63;10363200;28;20046;-60
2021/07/28 06:21:41;;;;;;;13.15;7.90;;;;;;;18.94;60.65;99484.56;10363773;28;20056;-60
2021/07/28 06:26:43;;;;;;;13.40;8.98;;;;;;;19.07;60.53;99488.50;10362840;28;20125;-60
2021/07/28 06:31:45;;;;;;;16.45;9.95;;;;;;;19.30;60.41;99491.44;10351877;28;20137;-60
2021/07/28 06:36:47;;;;;;;14.13;8.80;;;;;;;19.13;59.61;99495.00;10361750;28;20130;-60
2021/07/28 06:41:48;;;;;;;13.88;9.90;;;;;;;18.80;61.34;99503.66;10362738;28;20060;-60
2021/07/28 06:46:50;;;;;;;13.63;11.25;;;;;;;18.63;62.47;99506.19;10363381;28;20053;-61
2021/07/28 06:51:52;;;;;;;14.10;10.75;;;;;;;18.57;62.27;99504.16;10363050;28;20075;-60
2021/07/28 06:56:53;;;;;;;12.57;10.32;;;;;;;18.73;62.54;99502.63;10377565;28;20052;-60
2021/07/28 07:01:55;;;;;;;17.65;11.23;;;;;;;18.73;62.84;99503.44;10357787;28;20066;-60
2021/07/28 07:06:57;;;;;;;22.98;11.45;;;;;;;18.61;63.37;99496.72;10356305;28;20474;-60
2021/07/28 07:11:59;;;;;;;18.95;11.27;;;;;;;18.30;63.79;99508.72;10362505;28;20465;-60
2021/07/28 07:17:03;;;;;;;20.50;12.57;;;;;;;18.54;63.89;99498.34;10362219;28;20495;-60
2021/07/28 07:22:05;;;;;;;19.98;11.73;;;;;;;19.22;63.19;99502.84;10362576;28;20495;-60
2021/07/28 07:27:06;;;;;;;16.45;11.73;;;;;;;19.95;61.46;99490.75;10361240;28;20103;-60
2021/07/28 07:32:08;;;;;;;13.32;10.68;;;;;;;21.24;59.57;99482.81;10362928;28;20136;-60
2021/07/28 07:37:11;;;;;;;14.57;10.43;;;;;;;21.34;58.38;99474.69;10361339;28;20045;-60
2021/07/28 07:42:14;;;;;;;19.10;10.77;;;;;;;21.49;57.49;99475.63;10364101;28;20058;-60
2021/07/28 07:47:18;;;;;;;15.13;11.07;;;;;;;22.23;56.37;99483.91;10367459;28;20048;-60
2021/07/28 07:52:19;;;;;;;15.40;11.30;;;;;;;22.41;55.98;99489.78;10367015;28;20150;-60
2021/07/28 07:57:21;;;;;;;14.98;11.30;;;;;;;22.07;56.72;99485.88;10368170;28;20124;-60
2021/07/28 08:02:23;;;;;;;12.60;10.32;;;;;;;22.58;55.63;99486.00;10339484;28;20061;-61
2021/07/28 08:07:25;;;;;;;13.82;10.10;;;;;;;23.31;52.80;99483.50;10363770;28;20058;-60
2021/07/28 08:12:27;;;;;;;10.05;8.63;;;;;;;24.57;49.96;99457.28;10368343;28;20108;-60
2021/07/28 08:17:29;;;;;;;11.35;8.82;;;;;;;24.69;48.96;99461.91;10366386;28;20577;-60
2021/07/28 08:22:31;;;;;;;10.68;8.73;;;;;;;25.25;47.75;99446.69;10366001;28;20141;-61
2021/07/28 08:27:33;;;;;;;11.77;8.20;;;;;;;26.01;45.50;99451.00;10366536;28;20117;-61
2021/07/28 08:32:34;;;;;;;11.57;8.30;;;;;;;25.44;46.30;99450.53;10366268;28;20433;-61
2021/07/28 08:37:40;;;;;;;8.80;7.45;;;;;;;24.64;48.01;99458.16;10364125;28;20050;-61
2021/07/28 08:42:48;;;;;;;9.88;7.57;;;;;;;23.65;50.45;99444.75;10365364;28;20434;-61
2021/07/28 08:47:49;;;;;;;8.90;6.90;;;;;;;23.33;51.03;99453.97;10365971;28;20077;-60
2021/07/28 08:52:52;;;;;;;9.50;7.35;;;;;;;22.93;51.29;99446.38;10366895;28;20146;-61
2021/07/28 08:57:53;;;;;;;10.48;7.80;;;;;;;23.79;50.07;99443.91;10365793;28;20125;-61
2021/07/28 09:02:55;;;;;;;11.88;7.35;;;;;;;23.02;50.72;99450.66;10366029;28;20136;-61
2021/07/28 09:07:57;;;;;;;12.27;6.85;;;;;;;22.47;51.87;99458.94;10366210;28;20046;-61
2021/07/28 09:12:59;;;;;;;8.80;7.53;;;;;;;22.00;53.61;99459.09;10365275;28;20046;-60
2021/07/28 09:18:33;;;;;;;13.30;8.50;;;;;;;22.15;52.98;99456.53;10344663;28;20129;-60
2021/07/28 09:23:40;;;;;;;12.32;8.23;;;;;;;22.74;51.65;99454.94;10336361;28;20494;-61
2021/07/28 09:28:42;;;;;;;10.65;7.25;;;;;;;22.75;51.30;99453.91;10323262;28;20477;-61
2021/07/28 09:34:19;;;;;;;10.00;7.30;;;;;;;22.88;50.59;99454.13;10325106;28;20057;-61
2021/07/28 09:39:35;;;;;;;10.23;7.78;;;;;;;22.51;51.47;99458.41;10325203;28;20046;-60
2021/07/28 09:44:38;;;;;;;12.25;8.40;;;;;;;21.80;53.48;99456.00;10337932;28;20069;-61
2021/07/28 09:49:42;;;;;;;12.60;8.00;;;;;;;21.34;55.19;99456.06;10345864;28;20648;-61
2021/07/28 09:54:45;;;;;;;11.27;8.30;;;;;;;21.44;55.90;99456.69;10363563;28;20154;-61
2021/07/28 09:59:52;;;;;;;9.13;8.13;;;;;;;21.32;56.12;99448.25;10364616;28;20053;-61
2021/07/28 10:04:54;;;;;;;12.95;8.00;;;;;;;21.04;56.76;99462.94;10364537;28;20074;-61
2021/07/28 10:10:10;;;;;;;9.50;7.28;;;;;;;21.13;55.24;99469.06;10364380;28;20478;-61
2021/07/28 10:15:12;;;;;;;10.85;6.90;;;;;;;21.03;55.97;99470.06;10356344;28;20054;-61
2021/07/28 10:20:14;;;;;;;9.23;7.70;;;;;;;21.08;55.36;99475.72;10323402;28;20058;-61
2021/07/28 10:25:19;;;;;;;8.30;7.43;;;;;;;21.43;55.12;99469.19;10323207;28;20077;-60
2021/07/28 10:30:22;;;;;;;7.25;6.30;;;;;;;21.75;53.29;99461.03;10324120;28;20137;-61
2021/07/28 10:35:29;;;;;;;8.98;5.93;;;;;;;22.08;52.02;99459.06;10323146;28;20224;-60
2021/07/28 10:40:33;;;;;;;10.15;5.60;;;;;;;22.98;50.95;99444.84;10322833;28;20124;-60
2021/07/28 10:45:54;;;;;;;7.38;5.07;;;;;;;23.22;49.69;99436.59;10321829;28;20105;-61
2021/07/28 10:50:56;;;;;;;10.13;5.70;;;;;;;23.33;50.53;99430.75;10322901;28;20050;-61
2021/07/28 10:56:09;;;;;;;6.18;4.55;;;;;;;23.51;48.38;99426.94;10338488;28;20133;-61
2021/07/28 11:01:11;;;;;;;6.07;4.68;;;;;;;23.49;48.28;99432.47;10339856;28;20077;-61
2021/07/28 11:06:20;;;;;;;5.90;4.68;;;;;;;23.34;48.23;99429.75;10326123;28;20073;-61
2021/07/28 11:11:26;;;;;;;5.43;4.30;;;;;;;23.66;48.14;99428.53;10330645;28;20053;-61
2021/07/28 11:16:29;;;;;;;5.93;4.70;;;;;;;24.13;47.39;99425.41;10329988;28;20134;-61
2021/07/28 11:21:31;;;;;;;5.28;4.22;;;;;;;24.51;46.35;99417.94;10330017;28;20055;-61
2021/07/28 11:26:45;;;;;;;5.95;4.03;;;;;;;25.17;43.90;99409.38;10329866;28;20569;-61
2021/07/28 11:31:48;;;;;;;5.47;4.05;;;;;;;25.39;44.44;99410.13;10342012;28;20162;-61
2021/07/28 11:37:03;;;;;;;7.20;3.42;;;;;;;25.31;44.12;99413.78;10329368;28;20080;-61
2021/07/28 11:42:10;;;;;;;5.40;3.53;;;;;;;24.96;44.50;99412.97;10329449;28;20411;-61
2021/07/28 11:47:12;;;;;;;5.05;3.53;;;;;;;24.80;45.10;99415.09;10329025;28;20590;-61
2021/07/28 11:52:14;;;;;;;4.20;3.35;;;;;;;24.69;45.57;99411.13;10328546;28;20046;-61
2021/07/28 11:57:17;;;;;;;8.98;3.58;;;;;;;24.19;47.08;99424.63;10370882;28;20136;-61
2021/07/28 12:02:20;;;;;;;5.80;3.45;;;;;;;23.90;49.70;99425.53;10349286;28;20060;-61
2021/07/28 12:07:22;;;;;;;6.90;2.72;;;;;;;23.72;47.59;99425.13;10327169;28;20051;-61
2021/07/28 12:12:24;;;;;;;6.18;2.95;;;;;;;23.71;48.56;99422.66;10328087;28;20154;-61
2021/07/28 12:17:26;;;;;;;5.50;2.78;;;;;;;23.63;47.82;99436.09;10327625;28;20050;-61
2021/07/28 12:22:41;;;;;;;5.75;2.70;;;;;;;23.84;45.74;99439.63;10327449;28;20060;-61
2021/07/28 12:28:03;;;;;;;3.35;2.30;;;;;;;23.78;46.10;99443.06;10359549;28;20137;-61
2021/07/28 12:33:16;;;;;;;3.35;2.08;;;;;;;23.37;45.74;99449.94;10325516;28;20055;-61
2021/07/28 12:38:23;;;;;;;3.70;2.17;;;;;;;22.59;46.42;99463.69;10326929;28;20054;-61
2021/07/28 12:43:35;;;;;;;4.22;2.13;;;;;;;22.20;47.76;99470.97;10327089;28;20140;-60
2021/07/28 12:48:41;;;;;;;3.28;1.80;;;;;;;22.43;47.65;99462.97;10326547;28;20070;-61
2021/07/28 12:53:43;;;;;;;3.30;1.90;;;;;;;23.21;46.61;99458.91;10326768;28;20062;-61
2021/07/28 12:58:44;;;;;;;4.00;2.15;;;;;;;23.69;45.57;99454.06;10364900;28;20046;-61
2021/07/28 13:03:53;;;;;;;4.65;2.10;;;;;;;24.07;45.08;99452.88;10356943;28;20054;-61
2021/07/28 13:08:55;;;;;;;4.82;2.22;;;;;;;24.39;44.08;99451.56;10326422;28;20088;-61
2021/07/28 13:13:56;;;;;;;5.40;2.10;;;;;;;24.33;44.17;99442.44;10326309;28;20133;-61
2021/07/28 13:18:58;;;;;;;3.00;2.00;;;;;;;24.04;45.28;99451.38;10324140;28;20081;-61
2021/07/28 13:24:00;;;;;;;3.70;2.30;;;;;;;23.92;45.82;99450.22;10325376;28;20145;-61
2021/07/28 13:29:02;;;;;;;4.20;2.10;;;;;;;23.85;44.78;99457.34;10324206;28;20507;-60
2021/07/28 13:34:04;;;;;;;4.10;2.15;;;;;;;23.91;45.42;99453.91;10335553;28;20045;-61
2021/07/28 13:39:07;;;;;;;3.83;2.30;;;;;;;23.95;44.49;99444.50;10364255;28;20582;-60
2021/07/28 13:44:11;;;;;;;3.78;2.22;;;;;;;23.96;44.94;99443.47;10365066;28;20236;-61
2021/07/28 13:49:12;;;;;;;4.22;2.50;;;;;;;23.83;45.15;99446.00;10364419;28;20504;-60
2021/07/28 13:54:14;;;;;;;5.40;2.33;;;;;;;23.61;44.99;99446.97;10364852;28;20088;-60
2021/07/28 13:59:16;;;;;;;4.78;2.60;;;;;;;23.79;45.28;99460.75;10359679;28;20050;-61
2021/07/28 14:04:17;;;;;;;3.88;2.30;;;;;;;24.15;44.74;99452.75;10359821;28;20046;-61
2021/07/28 14:09:19;;;;;;;3.67;2.60;;;;;;;24.46;44.57;99452.44;10361406;28;20133;-61
2021/07/28 14:14:21;;;;;;;4.80;2.10;;;;;;;25.19;42.64;99452.84;10363634;28;20069;-61
2021/07/28 14:19:23;;;;;;;6.40;2.10;;;;;;;24.83;42.26;99444.16;10361322;28;20128;-61
2021/07/28 14:24:25;;;;;;;4.20;2.10;;;;;;;24.29;42.86;99452.69;10362850;28;20195;-60
2021/07/28 14:29:27;;;;;;;4.88;2.30;;;;;;;23.65;43.62;99455.44;10362164;28;20090;-61
2021/07/28 14:34:28;;;;;;;3.38;2.10;;;;;;;23.55;43.60;99455.75;10360523;28;20075;-61
2021/07/28 14:39:30;;;;;;;6.00;2.33;;;;;;;23.55;43.84;99447.72;10324869;28;20586;-61
2021/07/28 14:44:32;;;;;;;3.97;2.08;;;;;;;23.63;43.85;99434.28;10330556;28;20415;-61
2021/07/28 14:49:34;;;;;;;3.85;2.08;;;;;;;23.21;43.56;99444.75;10330397;28;20081;-61
2021/07/28 14:54:36;;;;;;;4.47;2.05;;;;;;;22.98;44.18;99428.00;10334057;28;20042;-61
2021/07/28 14:59:37;;;;;;;4.30;2.10;;;;;;;23.06;44.29;99422.59;10370065;28;20081;-61
2021/07/28 15:04:39;;;;;;;4.28;1.98;;;;;;;23.00;44.75;99420.66;10366851;28;20046;-61
2021/07/28 15:09:41;;;;;;;4.10;2.20;;;;;;;23.02;44.41;99432.81;10338740;28;20046;-61
2021/07/28 15:14:43;;;;;;;3.67;1.85;;;;;;;23.16;44.00;99418.66;10367454;28;20052;-61
2021/07/28 15:19:44;;;;;;;3.67;2.00;;;;;;;23.31;43.57;99424.78;10345174;28;20050;-61
2021/07/28 15:24:46;;;;;;;4.30;2.10;;;;;;;23.44;43.63;99425.00;10328706;28;20046;-61
2021/07/28 15:29:48;;;;;;;3.10;1.90;;;;;;;23.46;43.37;99416.81;10328280;28;20413;-61
2021/07/28 15:34:50;;;;;;;3.58;1.90;;;;;;;23.05;43.61;99429.75;10389362;28;20101;-60
2021/07/28 15:40:06;;;;;;;4.43;1.80;;;;;;;23.09;43.01;99425.72;10330789;28;20077;-61
2021/07/28 15:45:10;;;;;;;4.10;1.90;;;;;;;23.01;43.46;99430.31;10327771;28;20061;-61
2021/07/28 15:50:14;;;;;;;5.70;2.13;;;;;;;22.76;44.41;99440.38;10326990;28;20534;-61
2021/07/28 15:55:16;;;;;;;4.18;2.03;;;;;;;22.74;44.58;99441.59;10338110;28;20559;-61
2021/07/28 16:00:19;;;;;;;3.10;1.90;;;;;;;22.83;43.65;99435.16;10367873;28;20046;-61
2021/07/28 16:05:21;;;;;;;4.68;1.90;;;;;;;23.52;42.84;99425.91;10361600;28;20108;-61
2021/07/28 16:10:23;;;;;;;4.85;1.92;;;;;;;23.42;42.72;99431.53;10327189;28;20086;-61
2021/07/28 16:15:34;;;;;;;5.03;2.00;;;;;;;24.31;40.11;99422.31;10326935;28;20078;-61
2021/07/28 16:20:36;;;;;;;2.83;1.90;;;;;;;24.05;40.91;99434.34;10326982;28;20050;-61
2021/07/28 16:25:44;;;;;;;3.75;1.90;;;;;;;23.62;41.43;99427.25;10326677;28;20129;-61
2021/07/28 16:30:47;;;;;;;4.80;1.85;;;;;;;23.70;41.44;99419.16;10353562;28;20141;-61
2021/07/28 16:35:49;;;;;;;3.20;1.73;;;;;;;23.57;41.49;99419.00;10365429;28;20065;-61
2021/07/28 16:40:51;;;;;;;5.68;1.92;;;;;;;23.49;41.01;99409.25;10364960;28;20132;-61
2021/07/28 16:45:53;;;;;;;5.40;2.50;;;;;;;23.45;42.63;99421.31;10365599;28;20104;-61
2021/07/28 16:50:55;;;;;;;2.97;1.80;;;;;;;23.62;41.51;99419.25;10366069;28;20461;-61
2021/07/28 16:55:57;;;;;;;4.18;2.10;;;;;;;23.73;41.18;99426.78;10365476;28;20077;-61
2021/07/28 17:00:59;;;;;;;2.88;1.70;;;;;;;23.67;41.66;99421.38;10365731;28;20542;-61
2021/07/28 17:06:01;;;;;;;3.58;1.95;;;;;;;23.65;42.00;99429.56;10360381;28;20049;-61
2021/07/28 17:11:03;;;;;;;3.58;2.00;;;;;;;23.30;41.38;99422.31;10334268;28;20502;-61
2021/07/28 17:16:08;;;;;;;5.07;1.80;;;;;;;23.24;41.76;99428.38;10340137;28;20050;-61
2021/07/28 17:21:09;;;;;;;6.45;2.08;;;;;;;23.11;41.23;99425.53;10363552;28;20058;-61
2021/07/28 17:26:11;;;;;;;4.00;2.00;;;;;;;23.08;41.82;99433.91;10365044;28;20046;-61
2021/07/28 17:31:13;;;;;;;3.80;2.00;;;;;;;23.07;41.25;99443.75;10364596;28;20054;-61
2021/07/28 17:36:15;;;;;;;2.63;1.70;;;;;;;22.90;40.90;99434.28;10363970;28;20498;-61
2021/07/28 17:41:16;;;;;;;3.00;1.83;;;;;;;22.87;40.86;99433.78;10363946;28;20068;-61
2021/07/28 17:46:18;;;;;;;4.40;1.85;;;;;;;22.72;41.22;99428.38;10360614;28;20050;-61
2021/07/28 17:51:20;;;;;;;4.47;1.92;;;;;;;22.56;41.68;99437.38;10341832;28;20060;-61
2021/07/28 17:56:22;;;;;;;4.50;2.10;;;;;;;22.53;41.10;99432.41;10342650;28;20137;-61
2021/07/28 18:01:24;;;;;;;4.85;2.40;;;;;;;22.19;41.77;99440.00;10364863;28;20454;-60
2021/07/28 18:06:44;;;;;;;4.90;2.10;;;;;;;21.79;42.15;99440.22;10402251;28;20059;-60
2021/07/28 18:11:46;;;;;;;5.15;2.25;;;;;;;21.70;42.89;99443.94;10403521;28;20096;-60
2021/07/28 18:16:48;;;;;;;3.75;2.10;;;;;;;21.52;42.28;99443.34;10402501;28;20473;-60
2021/07/28 18:21:50;;;;;;;5.80;2.00;;;;;;;21.41;42.95;99460.53;10403404;28;20349;-60
2021/07/28 18:26:53;;;;;;;5.07;2.20;;;;;;;21.34;43.50;99461.38;10403032;28;20482;-60
2021/07/28 18:31:58;;;;;;;5.35;2.60;;;;;;;21.19;43.33;99463.91;10383587;28;20093;-60
2021/07/28 18:37:00;;;;;;;3.97;2.30;;;;;;;20.99;43.84;99462.59;10320565;28;20186;-60
2021/07/28 18:42:02;;;;;;;4.15;2.15;;;;;;;21.00;43.67;99461.63;10394401;28;20149;-60
2021/07/28 18:47:04;;;;;;;5.22;2.30;;;;;;;20.88;43.46;99461.16;10402802;28;20199;-60
2021/07/28 18:52:07;;;;;;;5.60;2.40;;;;;;;20.88;44.20;99461.16;10402797;28;20486;-61
2021/07/28 18:57:09;;;;;;;7.15;2.70;;;;;;;20.81;44.25;99454.00;10376020;28;20052;-60
2021/07/28 19:02:11;;;;;;;5.65;2.38;;;;;;;20.73;44.83;99462.81;10360667;28;20075;-60
2021/07/28 19:07:14;;;;;;;5.72;2.35;;;;;;;20.72;45.25;99469.09;10365623;28;20116;-60
2021/07/28 19:12:15;;;;;;;5.30;2.42;;;;;;;20.59;45.76;99476.75;10361712;28;20061;-60
2021/07/28 19:17:17;;;;;;;7.10;2.40;;;;;;;20.43;45.94;99482.03;10361979;28;20089;-61
2021/07/28 19:22:21;;;;;;;6.68;2.70;;;;;;;20.46;46.51;99494.97;10379089;28;20092;-60
2021/07/28 19:27:23;;;;;;;5.68;2.30;;;;;;;20.41;47.05;99494.66;10405964;28;20041;-60
2021/07/28 19:32:26;;;;;;;4.38;2.40;;;;;;;20.48;46.79;99503.63;10365937;28;20520;-59
2021/07/28 19:37:27;;;;;;;6.90;2.75;;;;;;;20.36;47.27;99512.09;10356141;28;20128;-60
2021/07/28 19:42:35;;;;;;;6.10;2.25;;;;;;;20.34;47.41;99522.84;10367769;28;20399;-60
2021/07/28 19:47:38;;;;;;;4.70;2.60;;;;;;;20.20;48.87;99516.38;10369056;28;20070;-60
2021/07/28 19:52:43;;;;;;;5.15;2.35;;;;;;;19.95;49.59;99524.44;10366994;28;20042;-60
2021/07/28 19:57:44;;;;;;;5.30;2.45;;;;;;;19.72;49.86;99533.94;10365684;28;20133;-60
2021/07/28 20:02:47;;;;;;;4.00;2.28;;;;;;;19.54;50.25;99541.97;10382499;28;20137;-60
2021/07/28 20:07:49;;;;;;;6.82;2.88;;;;;;;19.43;50.28;99534.28;10367032;28;20419;-60
2021/07/28 20:12:51;;;;;;;5.35;2.33;;;;;;;19.36;50.78;99536.72;10367090;28;20129;-60
2021/07/28 20:17:53;;;;;;;4.35;2.55;;;;;;;19.21;51.03;99527.69;10367382;28;20077;-60
2021/07/28 20:22:56;;;;;;;7.55;2.92;;;;;;;19.08;51.17;99529.91;10366012;28;20504;-60
2021/07/28 20:28:00;;;;;;;7.60;2.88;;;;;;;18.91;51.98;99533.38;10347022;28;20515;-60
2021/07/28 20:33:05;;;;;;;5.75;2.58;;;;;;;18.76;52.33;99540.25;10365192;28;20053;-60
2021/07/28 20:38:07;;;;;;;7.03;2.55;;;;;;;18.60;52.93;99542.75;10407215;28;20052;-61
2021/07/28 20:43:11;;;;;;;5.32;2.70;;;;;;;18.46;52.84;99544.09;10406722;28;20133;-60
2021/07/28 20:48:12;;;;;;;7.13;2.63;;;;;;;18.43;53.31;99548.84;10422762;28;20051;-60
2021/07/28 20:53:14;;;;;;;5.00;2.35;;;;;;;18.41;53.31;99542.88;10404254;28;20077;-60
2021/07/28 20:58:16;;;;;;;6.10;2.78;;;;;;;18.47;53.48;99542.28;10366518;28;20125;-60
2021/07/28 21:03:18;;;;;;;6.82;2.78;;;;;;;18.48;53.93;99538.66;10380753;28;20485;-60
2021/07/28 21:08:20;;;;;;;5.75;2.95;;;;;;;18.52;54.18;99532.88;10365840;28;20120;-60
2021/07/28 21:13:21;;;;;;;5.97;2.80;;;;;;;18.51;53.79;99536.53;10360549;28;20062;-60
2021/07/28 21:18:23;;;;;;;7.13;2.83;;;;;;;18.56;53.22;99530.78;10323635;28;20064;-60
2021/07/28 21:23:25;;;;;;;5.85;2.40;;;;;;;18.61;53.70;99528.50;10325228;28;20054;-60
2021/07/28 21:28:26;;;;;;;6.93;2.60;;;;;;;18.62;53.96;99536.31;10325417;28;20046;-60
2021/07/28 21:33:30;;;;;;;6.55;2.70;;;;;;;18.65;54.92;99530.69;10325098;28;20394;-60
2021/07/28 21:38:32;;;;;;;5.72;2.80;;;;;;;18.49;54.96;99525.25;10324790;28;20053;-60
2021/07/28 21:43:34;;;;;;;6.95;2.92;;;;;;;18.28;55.48;99531.84;10325214;28;20104;-60
2021/07/28 21:48:37;;;;;;;6.85;2.80;;;;;;;18.01;55.85;99534.50;10354798;28;20086;-60
2021/07/28 21:53:47;;;;;;;8.68;3.08;;;;;;;17.78;56.18;99532.25;10324451;28;20495;-60
2021/07/28 21:58:58;;;;;;;6.83;2.70;;;;;;;17.61;56.98;99537.44;10362952;28;20085;-60
2021/07/28 22:03:59;;;;;;;8.98;2.75;;;;;;;17.59;57.06;99539.41;10364180;28;20054;-60
2021/07/28 22:09:01;;;;;;;4.68;2.58;;;;;;;17.52;57.53;99547.13;10363866;28;20060;-60
2021/07/28 22:14:03;;;;;;;6.18;2.80;;;;;;;17.54;57.31;99550.44;10348545;28;20162;-60
2021/07/28 22:19:05;;;;;;;5.13;2.80;;;;;;;17.59;57.05;99550.00;10356973;28;20045;-60
2021/07/28 22:24:07;;;;;;;6.28;2.67;;;;;;;17.55;56.99;99557.38;10374922;28;20088;-60
2021/07/28 22:29:08;;;;;;;5.30;2.97;;;;;;;17.50;57.46;99549.06;10357095;28;20046;-60
2021/07/28 22:34:10;;;;;;;5.05;2.70;;;;;;;17.48;57.38;99545.75;10346946;28;20053;-60
2021/07/28 22:39:12;;;;;;;4.63;2.72;;;;;;;17.47;57.90;99538.78;10350637;28;20133;-60
2021/07/28 22:44:13;;;;;;;4.00;2.42;;;;;;;17.40;58.06;99536.84;10374892;28;20089;-60
2021/07/28 22:54:38;;;;;;;5.72;2.40;;;;;;;17.26;57.39;99547.84;10354155;28;20042;-60
2021/07/28 23:10:20;;;;;;;8.00;2.80;;;;;;;17.38;57.26;99544.94;10370203;28;20398;-60
2021/07/28 23:15:24;;;;;;;5.47;2.90;;;;;;;17.51;56.61;99548.06;10367106;28;20065;-60
2021/07/28 23:20:28;;;;;;;4.90;2.70;;;;;;;17.60;56.51;99531.34;10385000;28;20121;-60
2021/07/28 23:25:30;;;;;;;5.13;2.95;;;;;;;17.66;56.04;99537.88;10369066;28;20069;-60
2021/07/28 23:30:32;;;;;;;6.68;2.78;;;;;;;17.66;55.72;99525.47;10368832;28;20062;-60
2021/07/28 23:35:37;;;;;;;7.50;2.72;;;;;;;17.54;55.33;99529.28;10367851;28;20042;-60
2021/07/28 23:40:39;;;;;;;5.70;2.70;;;;;;;17.42;55.76;99529.63;10368309;28;20828;-60